createdAt,value
2023-04-18T00:02:17.456Z,4.60
2023-04-18T00:04:46.443Z,4.47
2023-04-18T00:07:16.295Z,4.37
2023-04-18T00:09:45.416Z,4.13
2023-04-18T00:12:14.062Z,3.87
2023-04-18T00:14:43.843Z,4.23
2023-04-18T00:17:13.489Z,4.17
2023-04-18T00:19:43.334Z,4.57
2023-04-18T00:22:13.204Z,4.40
2023-04-18T00:24:41.809Z,3.93
2023-04-18T00:27:10.224Z,4.67
2023-04-18T00:29:40.682Z,4.70
2023-04-18T00:32:10.545Z,4.50
2023-04-18T00:34:40.449Z,4.33
2023-04-18T00:37:09.158Z,4.00
2023-04-18T00:39:37.928Z,4.10
2023-04-18T00:42:06.336Z,3.83
2023-04-18T00:44:34.763Z,4.30
2023-04-18T00:47:03.361Z,4.67
2023-04-18T00:49:33.137Z,4.03
2023-04-18T00:52:01.523Z,4.40
2023-04-18T00:54:30.501Z,4.63
2023-04-18T00:57:02.274Z,3.93
2023-04-18T00:59:31.085Z,4.43
2023-04-18T01:01:59.533Z,4.00
2023-04-18T01:04:27.836Z,4.87
2023-04-18T01:06:57.812Z,4.03
2023-04-18T01:09:26.555Z,3.80
2023-04-18T01:11:55.000Z,4.20
2023-04-18T01:14:23.425Z,4.03
2023-04-18T01:16:51.907Z,4.03
2023-04-18T01:19:20.018Z,3.93
2023-04-18T01:21:49.618Z,4.10
2023-04-18T01:24:19.559Z,4.23
2023-04-18T01:26:48.829Z,3.87
2023-04-18T01:29:17.036Z,3.30
2023-04-18T01:31:46.149Z,3.83
2023-04-18T01:34:14.880Z,3.80
2023-04-18T01:36:43.439Z,4.43
2023-04-18T01:39:12.251Z,4.13
2023-04-18T01:41:43.001Z,3.97
2023-04-18T01:44:11.081Z,4.10
2023-04-18T01:46:40.886Z,4.23
2023-04-18T01:49:09.942Z,4.27
2023-04-18T01:51:39.437Z,3.87
2023-04-18T01:54:07.945Z,3.93
2023-04-18T01:56:36.611Z,4.40
2023-04-18T01:59:06.457Z,4.13
2023-04-18T02:01:35.006Z,4.23
2023-04-18T02:04:03.786Z,4.30
2023-04-18T02:06:32.320Z,4.33
2023-04-18T02:09:00.613Z,4.10
2023-04-18T02:11:28.864Z,4.47
2023-04-18T02:13:57.663Z,4.23
2023-04-18T02:16:27.601Z,3.93
2023-04-18T02:18:55.948Z,4.17
2023-04-18T02:21:24.566Z,5.00
2023-04-18T02:23:53.125Z,4.30
2023-04-18T02:26:21.396Z,4.73
2023-04-18T02:28:50.035Z,4.60
2023-04-18T02:31:18.574Z,4.90
2023-04-18T02:33:48.141Z,5.10
2023-04-18T02:36:16.547Z,4.60
2023-04-18T02:38:45.530Z,4.57
2023-04-18T02:41:17.524Z,4.77
2023-04-18T02:43:45.964Z,5.10
2023-04-18T02:46:14.431Z,5.10
2023-04-18T02:48:43.135Z,5.03
2023-04-18T02:51:12.636Z,5.60
2023-04-18T02:53:41.041Z,5.47
2023-04-18T02:56:09.768Z,5.10
2023-04-18T02:58:38.266Z,5.33
2023-04-18T03:01:06.549Z,4.80
2023-04-18T03:03:35.241Z,5.77
2023-04-18T03:06:03.691Z,5.87
2023-04-18T03:08:33.424Z,5.47
2023-04-18T03:11:02.029Z,6.10
2023-04-18T03:13:30.469Z,5.13
2023-04-18T03:15:59.060Z,6.00
2023-04-18T03:18:32.016Z,5.20
2023-04-18T03:21:00.113Z,5.60
2023-04-18T03:23:28.484Z,5.30
2023-04-18T03:25:58.220Z,5.37
2023-04-18T03:28:26.462Z,5.50
2023-04-18T03:30:54.981Z,5.73
2023-04-18T03:33:23.980Z,5.57
2023-04-18T03:35:52.805Z,6.20
2023-04-18T03:38:21.365Z,5.30
2023-04-18T03:40:49.755Z,5.37
2023-04-18T03:43:21.079Z,5.40
2023-04-18T03:45:50.136Z,5.40
2023-04-18T03:48:18.556Z,5.90
2023-04-18T03:50:47.138Z,5.63
2023-04-18T03:53:15.727Z,5.80
2023-04-18T03:55:45.708Z,5.97
2023-04-18T03:58:14.261Z,5.97
2023-04-18T04:00:44.184Z,6.00
2023-04-18T04:03:12.804Z,5.57
2023-04-18T04:05:41.360Z,5.70
2023-04-18T04:08:10.057Z,6.10
2023-04-18T04:10:38.461Z,5.10
2023-04-18T04:13:06.909Z,4.93
2023-04-18T04:15:35.563Z,5.20
2023-04-18T04:18:05.646Z,6.17
2023-04-18T04:20:34.142Z,5.03
2023-04-18T04:23:02.766Z,5.53
2023-04-18T04:25:33.285Z,5.97
2023-04-18T04:28:03.634Z,5.87
2023-04-18T04:30:33.395Z,5.67
2023-04-18T04:33:03.452Z,5.50
2023-04-18T04:35:34.780Z,5.90
2023-04-18T04:38:03.619Z,5.83
2023-04-18T04:40:33.016Z,5.70
2023-04-18T04:43:01.920Z,6.40
2023-04-18T04:45:31.200Z,6.43
2023-04-18T04:47:59.904Z,6.67
2023-04-18T04:50:28.784Z,6.30
2023-04-18T04:52:58.600Z,5.87
2023-04-18T04:55:27.499Z,6.37
2023-04-18T04:57:55.948Z,6.20
2023-04-18T05:00:24.392Z,6.30
2023-04-18T05:02:53.680Z,6.30
2023-04-18T05:05:21.914Z,6.13
2023-04-18T05:07:50.313Z,6.57
2023-04-18T05:10:20.087Z,7.33
2023-04-18T05:12:48.488Z,6.97
2023-04-18T05:15:17.132Z,6.80
2023-04-18T05:17:45.943Z,7.70
2023-04-18T05:20:14.642Z,6.83
2023-04-18T05:22:42.760Z,7.67
2023-04-18T05:25:12.313Z,8.13
2023-04-18T05:27:42.355Z,7.20
2023-04-18T05:30:11.554Z,7.43
2023-04-18T05:32:40.006Z,7.70
2023-04-18T05:35:08.741Z,7.50
2023-04-18T05:37:37.116Z,7.77
2023-04-18T05:40:06.698Z,9.60
2023-04-18T05:42:34.779Z,8.13
2023-04-18T05:45:04.306Z,8.70
2023-04-18T05:47:33.671Z,8.10
2023-04-18T05:50:01.873Z,8.80
2023-04-18T05:52:30.305Z,8.27
2023-04-18T05:54:58.704Z,8.23
2023-04-18T05:57:27.144Z,9.10
2023-04-18T05:59:55.800Z,9.07
2023-04-18T06:02:25.788Z,9.57
2023-04-18T06:04:54.621Z,8.27
2023-04-18T06:07:25.070Z,10.93
2023-04-18T06:09:54.112Z,9.63
2023-04-18T06:12:22.528Z,8.03
2023-04-18T06:14:52.058Z,9.37
2023-04-18T06:17:21.359Z,8.10
2023-04-18T06:19:51.162Z,9.47
2023-04-18T06:22:19.631Z,9.33
2023-04-18T06:24:48.098Z,9.60
2023-04-18T06:27:28.251Z,9.63
2023-04-18T06:29:59.332Z,8.87
2023-04-18T06:32:27.873Z,9.37
2023-04-18T06:34:57.391Z,10.30
2023-04-18T06:37:25.922Z,9.90
2023-04-18T06:39:54.274Z,9.13
2023-04-18T06:42:22.836Z,9.70
2023-04-18T06:44:51.077Z,9.87
2023-04-18T06:47:19.510Z,8.93
2023-04-18T06:49:48.212Z,8.47
2023-04-18T06:52:17.944Z,8.77
2023-04-18T06:54:46.418Z,8.17
2023-04-18T06:57:14.893Z,8.67
2023-04-18T06:59:43.387Z,8.27
2023-04-18T07:02:11.881Z,7.97
2023-04-18T07:04:40.577Z,7.73
2023-04-18T07:07:08.990Z,9.43
2023-04-18T07:09:38.746Z,8.93
2023-04-18T07:12:07.390Z,7.63
2023-04-18T07:14:35.844Z,8.37
2023-04-18T07:17:05.083Z,7.97
2023-04-18T07:19:33.640Z,9.63
2023-04-18T07:22:02.305Z,9.10
2023-04-18T07:24:30.992Z,8.10
2023-04-18T07:27:01.383Z,9.27
2023-04-18T07:29:29.835Z,8.57
2023-04-18T07:31:58.893Z,10.07
2023-04-18T07:34:29.850Z,9.53
2023-04-18T07:36:58.738Z,8.97
2023-04-18T07:39:26.892Z,9.13
2023-04-18T07:41:55.318Z,8.43
2023-04-18T07:44:25.423Z,7.93
2023-04-18T07:46:54.111Z,9.67
2023-04-18T07:49:22.553Z,9.63
2023-04-18T07:51:50.915Z,9.23
2023-04-18T07:54:19.285Z,9.13
2023-04-18T07:56:47.368Z,9.30
2023-04-18T07:59:16.006Z,9.17
2023-04-18T08:01:45.799Z,9.33
2023-04-18T08:04:14.994Z,9.63
2023-04-18T08:06:43.506Z,9.13
2023-04-18T08:09:12.586Z,9.77
2023-04-18T08:11:41.328Z,9.17
2023-04-18T08:14:09.795Z,9.97
2023-04-18T08:16:38.618Z,9.50
2023-04-18T08:19:08.778Z,9.07
2023-04-18T08:21:37.290Z,8.70
2023-04-18T08:24:05.684Z,8.87
2023-04-18T08:26:34.046Z,9.33
2023-04-18T08:29:02.473Z,10.10
2023-04-18T08:31:31.738Z,8.83
2023-04-18T08:33:59.895Z,9.87
2023-04-18T08:36:29.366Z,8.83
2023-04-18T08:38:58.050Z,9.60
2023-04-18T08:41:27.405Z,9.77
2023-04-18T08:43:57.144Z,9.50
2023-04-18T08:46:25.684Z,10.00
2023-04-18T08:48:58.596Z,9.67
2023-04-18T08:51:27.441Z,9.73
2023-04-18T08:53:57.490Z,10.00
2023-04-18T08:56:27.300Z,8.87
2023-04-18T08:59:00.170Z,8.97
2023-04-18T09:01:50.454Z,10.73
2023-04-18T09:04:34.355Z,9.77
2023-04-18T09:07:02.738Z,10.37
2023-04-18T09:09:43.202Z,10.73
2023-04-18T09:12:14.428Z,10.67
2023-04-18T09:14:47.189Z,10.27
2023-04-18T09:17:18.402Z,10.87
2023-04-18T09:19:50.242Z,11.27
2023-04-18T09:22:18.961Z,10.63
2023-04-18T09:24:55.479Z,10.57
2023-04-18T09:27:24.123Z,10.47
2023-04-18T09:29:55.815Z,10.87
2023-04-18T09:32:27.434Z,10.83
2023-04-18T09:34:58.282Z,11.77
2023-04-18T09:37:27.425Z,11.37
2023-04-18T09:39:57.198Z,12.50
2023-04-18T09:42:28.181Z,11.07
2023-04-18T09:45:03.746Z,12.40
2023-04-18T09:47:34.845Z,11.87
2023-04-18T09:50:03.844Z,11.57
2023-04-18T09:52:35.948Z,11.50
2023-04-18T09:55:07.538Z,11.77
2023-04-18T09:57:37.525Z,12.23
2023-04-18T10:00:14.088Z,11.50
2023-04-18T10:02:50.615Z,12.50
2023-04-18T10:05:21.233Z,12.90
2023-04-18T10:07:51.167Z,12.50
2023-04-18T10:10:20.876Z,13.03
2023-04-18T10:12:50.814Z,12.80
2023-04-18T10:15:21.199Z,13.03
2023-04-18T10:18:03.656Z,14.37
2023-04-18T10:20:35.893Z,12.87
2023-04-18T10:23:38.371Z,14.67
2023-04-18T10:26:08.980Z,13.23
2023-04-18T10:28:54.522Z,13.50
2023-04-18T10:31:24.003Z,13.17
2023-04-18T10:36:28.237Z,12.30
2023-04-18T10:38:57.980Z,12.83
2023-04-18T10:41:28.896Z,12.60
2023-04-18T10:44:14.596Z,13.43
2023-04-18T10:47:04.575Z,12.60
2023-04-18T10:49:35.950Z,12.17
2023-04-18T10:52:06.041Z,13.97
2023-04-18T10:54:39.387Z,12.20
2023-04-18T10:57:10.185Z,12.60
2023-04-18T10:59:40.999Z,11.67
2023-04-18T11:02:25.265Z,11.77
2023-04-18T11:04:54.751Z,12.10
2023-04-18T11:07:33.987Z,11.73
2023-04-18T11:10:02.615Z,12.40
2023-04-18T11:12:33.392Z,11.17
2023-04-18T11:15:04.865Z,11.57
2023-04-18T11:17:34.830Z,11.83
2023-04-18T11:20:08.746Z,12.47
2023-04-18T11:22:46.608Z,12.27
2023-04-18T11:25:15.247Z,13.33
2023-04-18T11:27:45.883Z,12.90
2023-04-18T11:30:15.601Z,12.93
2023-04-18T11:32:44.109Z,11.60
2023-04-18T11:35:13.871Z,12.67
2023-04-18T11:37:43.146Z,11.10
2023-04-18T11:40:11.814Z,11.17
2023-04-18T11:42:41.533Z,13.20
2023-04-18T11:45:15.887Z,12.13
2023-04-18T11:47:44.725Z,12.43
2023-04-18T11:50:14.265Z,11.93
2023-04-18T11:52:43.578Z,12.17
2023-04-18T11:55:14.157Z,12.13
2023-04-18T11:57:42.910Z,11.83
2023-04-18T12:00:13.999Z,12.37
2023-04-18T12:02:44.482Z,11.97
2023-04-18T12:05:15.225Z,12.07
2023-04-18T12:07:45.836Z,12.50
2023-04-18T12:10:26.034Z,12.07
2023-04-18T12:12:55.756Z,12.37
2023-04-18T12:15:27.290Z,11.97
2023-04-18T12:18:00.419Z,11.63
2023-04-18T12:20:35.036Z,11.53
2023-04-18T12:23:03.578Z,11.07
2023-04-18T12:25:31.776Z,12.10
2023-04-18T12:28:01.064Z,11.97
2023-04-18T12:30:32.702Z,11.73
2023-04-18T12:33:02.893Z,10.83
2023-04-18T12:35:31.831Z,11.57
2023-04-18T12:38:01.354Z,11.83
2023-04-18T12:40:30.861Z,11.83
2023-04-18T12:43:00.509Z,12.63
2023-04-18T12:45:31.052Z,11.80
2023-04-18T12:47:59.440Z,13.13
2023-04-18T12:50:28.447Z,11.85
2023-04-18T12:52:59.805Z,11.93
2023-04-18T12:55:28.300Z,12.82
2023-04-18T12:57:58.107Z,12.90
2023-04-18T13:00:27.967Z,13.17
2023-04-18T13:02:57.572Z,12.90
2023-04-18T13:05:31.645Z,11.57
2023-04-18T13:10:32.475Z,11.47
2023-04-18T13:13:01.211Z,12.90
2023-04-18T13:15:29.546Z,11.53
2023-04-18T13:18:04.442Z,11.13
2023-04-18T13:20:33.148Z,11.73
2023-04-18T13:23:01.551Z,11.43
2023-04-18T13:25:29.722Z,11.70
2023-04-18T13:27:58.614Z,11.17
2023-04-18T13:30:27.613Z,10.73
2023-04-18T13:32:56.743Z,10.82
2023-04-18T13:35:26.461Z,10.73
2023-04-18T13:37:54.937Z,12.63
2023-04-18T13:40:23.160Z,11.75
2023-04-18T13:42:51.545Z,11.82
2023-04-18T13:45:20.541Z,11.97
2023-04-18T13:47:49.069Z,11.80
2023-04-18T13:50:17.453Z,11.50
2023-04-18T13:52:48.641Z,12.32
2023-04-18T13:55:17.954Z,11.35
2023-04-18T13:57:46.355Z,11.63
2023-04-18T14:00:15.559Z,11.18
2023-04-18T14:02:43.738Z,10.67
2023-04-18T14:05:12.355Z,11.00
2023-04-18T14:07:41.439Z,11.88
2023-04-18T14:10:12.050Z,11.27
2023-04-18T14:12:41.038Z,11.00
2023-04-18T14:15:10.645Z,10.80
2023-04-18T14:17:39.119Z,11.68
2023-04-18T14:20:08.545Z,11.25
2023-04-18T14:22:36.893Z,10.38
2023-04-18T14:25:05.430Z,10.85
2023-04-18T14:27:34.974Z,11.40
2023-04-18T14:30:03.350Z,10.25
2023-04-18T14:32:32.196Z,10.53
2023-04-18T14:35:00.253Z,10.80
2023-04-18T14:37:28.689Z,11.17
2023-04-18T14:39:57.037Z,10.65
2023-04-18T14:42:25.445Z,10.55
2023-04-18T14:44:55.517Z,10.67
2023-04-18T14:47:24.479Z,11.00
2023-04-18T14:49:53.251Z,10.43
2023-04-18T14:52:21.573Z,10.93
2023-04-18T14:54:49.968Z,11.30
2023-04-18T14:57:18.070Z,11.38
2023-04-18T14:59:46.152Z,11.68
2023-04-18T15:02:15.699Z,10.65
2023-04-18T15:04:44.319Z,11.38
2023-04-18T15:07:12.769Z,10.23
2023-04-18T15:09:41.122Z,10.95
2023-04-18T15:12:09.660Z,10.70
2023-04-18T15:14:38.064Z,10.93
2023-04-18T15:17:06.568Z,11.60
2023-04-18T15:19:36.188Z,10.85
2023-04-18T15:22:04.342Z,11.00
2023-04-18T15:24:32.722Z,12.35
2023-04-18T15:27:01.889Z,12.18
2023-04-18T15:29:30.106Z,11.00
2023-04-18T15:31:58.333Z,10.65
2023-04-18T15:34:27.012Z,11.20
2023-04-18T15:36:56.616Z,10.30
2023-04-18T15:39:24.973Z,10.80
2023-04-18T15:41:54.689Z,12.13
2023-04-18T15:44:23.323Z,10.32
2023-04-18T15:46:51.810Z,10.80
2023-04-18T15:49:20.401Z,11.10
2023-04-18T15:51:49.210Z,10.48
2023-04-18T15:54:18.683Z,11.77
2023-04-18T15:56:46.934Z,12.02
2023-04-18T15:59:15.150Z,11.77
2023-04-18T16:01:46.031Z,12.70
2023-04-18T16:04:14.979Z,11.77
2023-04-18T16:06:43.595Z,12.30
2023-04-18T16:09:11.705Z,12.60
2023-04-18T16:11:41.255Z,11.93
2023-04-18T16:14:09.788Z,11.27
2023-04-18T16:16:38.480Z,11.15
2023-04-18T16:19:06.855Z,11.45
2023-04-18T16:21:35.206Z,10.60
2023-04-18T16:24:03.965Z,10.48
2023-04-18T16:26:32.607Z,10.52
2023-04-18T16:29:02.070Z,10.95
2023-04-18T16:31:30.674Z,10.27
2023-04-18T16:33:59.347Z,10.25
2023-04-18T16:36:27.895Z,10.05
2023-04-18T16:38:56.439Z,10.73
2023-04-18T16:41:24.784Z,10.85
2023-04-18T16:43:53.809Z,10.23
2023-04-18T16:46:23.714Z,10.47
2023-04-18T16:48:52.608Z,9.47
2023-04-18T16:51:21.169Z,10.30
2023-04-18T16:53:49.930Z,10.47
2023-04-18T16:56:18.581Z,9.63
2023-04-18T16:58:46.733Z,11.47
2023-04-18T17:01:14.910Z,9.77
2023-04-18T17:03:44.647Z,9.33
2023-04-18T17:06:13.079Z,10.20
2023-04-18T17:08:41.157Z,9.43
2023-04-18T17:11:09.684Z,9.37
2023-04-18T17:13:38.186Z,8.93
2023-04-18T17:16:07.083Z,9.83
2023-04-18T17:18:35.437Z,8.77
2023-04-18T17:21:05.401Z,9.20
2023-04-18T17:23:33.806Z,9.23
2023-04-18T17:26:02.383Z,9.67
2023-04-18T17:28:30.780Z,9.57
2023-04-18T17:31:01.403Z,9.53
2023-04-18T17:33:29.923Z,8.77
2023-04-18T17:35:58.393Z,9.13
2023-04-18T17:38:28.032Z,9.33
2023-04-18T17:41:00.309Z,9.30
2023-04-18T17:43:29.174Z,8.80
2023-04-18T17:45:57.943Z,10.03
2023-04-18T17:48:26.397Z,8.87
2023-04-18T17:50:54.916Z,9.40
2023-04-18T17:53:23.368Z,9.17
2023-04-18T17:55:53.224Z,9.73
2023-04-18T17:58:21.784Z,9.13
2023-04-18T18:00:50.571Z,9.13
2023-04-18T18:03:19.046Z,9.17
2023-04-18T18:05:47.941Z,8.60
2023-04-18T18:08:16.464Z,9.47
2023-04-18T18:10:46.955Z,9.47
2023-04-18T18:13:16.596Z,9.10
2023-04-18T18:15:45.656Z,9.07
2023-04-18T18:18:14.429Z,9.00
2023-04-18T18:20:45.284Z,9.30
2023-04-18T18:23:13.990Z,9.03
2023-04-18T18:25:42.134Z,9.27
2023-04-18T18:28:10.526Z,9.13
2023-04-18T18:30:40.101Z,9.60
2023-04-18T18:33:08.550Z,8.67
2023-04-18T18:35:37.090Z,9.07
2023-04-18T18:38:05.610Z,9.43
2023-04-18T18:40:36.634Z,9.13
2023-04-18T18:43:05.126Z,10.10
2023-04-18T18:45:34.354Z,9.13
2023-04-18T18:48:05.413Z,9.13
2023-04-18T18:50:33.808Z,9.07
2023-04-18T18:53:02.549Z,9.47
2023-04-18T18:55:31.659Z,10.03
2023-04-18T18:57:59.949Z,9.47
2023-04-18T19:00:28.460Z,8.20
2023-04-18T19:02:56.950Z,8.53
2023-04-18T19:05:29.074Z,8.90
2023-04-18T19:07:57.241Z,9.13
2023-04-18T19:10:25.690Z,9.17
2023-04-18T19:12:54.109Z,8.23
2023-04-18T19:15:22.893Z,8.07
2023-04-18T19:17:51.380Z,9.27
2023-04-18T19:20:20.990Z,8.53
2023-04-18T19:22:50.983Z,9.43
2023-04-18T19:25:19.371Z,8.80
2023-04-18T19:27:47.790Z,9.00
2023-04-18T19:30:16.287Z,8.47
2023-04-18T19:32:44.781Z,8.47
2023-04-18T19:35:13.349Z,9.27
2023-04-18T19:37:41.762Z,9.63
2023-04-18T19:40:12.432Z,9.27
2023-04-18T19:42:41.018Z,8.70
2023-04-18T19:45:11.312Z,8.67
2023-04-18T19:47:39.773Z,9.57
2023-04-18T19:50:09.134Z,9.97
2023-04-18T19:52:37.553Z,9.53
2023-04-18T19:55:06.796Z,8.77
2023-04-18T19:57:41.503Z,8.83
2023-04-18T20:00:10.762Z,9.60
2023-04-18T20:02:39.433Z,9.07
2023-04-18T20:05:09.407Z,8.77
2023-04-18T20:07:38.044Z,8.90
2023-04-18T20:10:08.815Z,8.97
2023-04-18T20:12:38.712Z,8.90
2023-04-18T20:15:08.191Z,8.53
2023-04-18T20:17:36.650Z,9.10
2023-04-18T20:20:08.057Z,8.10
2023-04-18T20:22:38.074Z,8.50
2023-04-18T20:25:07.228Z,8.63
2023-04-18T20:27:35.800Z,8.73
2023-04-18T20:30:06.720Z,8.17
2023-04-18T20:32:35.467Z,9.03
2023-04-18T20:35:04.422Z,8.47
2023-04-18T20:37:36.673Z,9.40
2023-04-18T20:40:08.032Z,8.73
2023-04-18T20:42:36.733Z,8.47
2023-04-18T20:45:10.852Z,8.77
2023-04-18T20:47:39.327Z,8.17
2023-04-18T20:50:08.905Z,8.60
2023-04-18T20:52:37.301Z,8.00
2023-04-18T20:55:05.913Z,8.17
2023-04-18T20:57:34.382Z,8.60
2023-04-18T21:00:03.090Z,8.80
2023-04-18T21:02:32.970Z,9.57
2023-04-18T21:05:01.146Z,9.43
2023-04-18T21:07:31.157Z,8.60
2023-04-18T21:09:59.694Z,8.50
2023-04-18T21:12:28.728Z,8.13
2023-04-18T21:14:57.318Z,8.83
2023-04-18T21:17:26.443Z,9.43
2023-04-18T21:19:56.915Z,9.80
2023-04-18T21:22:25.312Z,9.43
2023-04-18T21:24:53.698Z,8.50
2023-04-18T21:27:22.030Z,8.93
2023-04-18T21:29:50.455Z,9.30
2023-04-18T21:32:18.874Z,9.30
2023-04-18T21:34:46.925Z,9.63
2023-04-18T21:37:16.622Z,9.53
2023-04-18T21:39:45.194Z,9.37
2023-04-18T21:42:13.737Z,9.73
2023-04-18T21:44:42.249Z,8.60
2023-04-18T21:47:10.622Z,10.03
2023-04-18T21:49:39.013Z,8.83
2023-04-18T21:52:07.723Z,10.17
2023-04-18T21:54:37.245Z,8.90
2023-04-18T21:57:06.846Z,9.57
2023-04-18T21:59:35.035Z,9.80
2023-04-18T22:02:03.564Z,10.03
2023-04-18T22:04:32.821Z,10.07
2023-04-18T22:07:01.503Z,9.70
2023-04-18T22:09:31.377Z,9.87
2023-04-18T22:12:03.617Z,9.00
2023-04-18T22:14:33.120Z,9.93
2023-04-18T22:17:03.323Z,10.33
2023-04-18T22:19:31.972Z,9.53
2023-04-18T22:22:00.867Z,9.57
2023-04-18T22:24:29.426Z,9.73
2023-04-18T22:26:57.930Z,9.87
2023-04-18T22:29:27.526Z,9.13
2023-04-18T22:31:56.018Z,9.57
2023-04-18T22:34:24.785Z,9.17
2023-04-18T22:36:52.869Z,9.60
2023-04-18T22:39:21.568Z,10.43
2023-04-18T22:41:50.044Z,10.10
2023-04-18T22:44:18.684Z,10.10
2023-04-18T22:46:48.552Z,9.93
2023-04-18T22:49:18.042Z,10.67
2023-04-18T22:51:47.456Z,9.50
2023-04-18T22:54:16.738Z,10.47
2023-04-18T22:56:45.534Z,10.60
2023-04-18T22:59:14.242Z,9.73
2023-04-18T23:01:42.925Z,9.93
2023-04-18T23:04:12.979Z,10.33
2023-04-18T23:06:41.622Z,9.73
2023-04-18T23:09:10.367Z,9.80
2023-04-18T23:11:38.883Z,10.53
2023-04-18T23:14:08.639Z,10.43
2023-04-18T23:16:37.020Z,8.97
2023-04-18T23:19:05.717Z,9.27
2023-04-18T23:21:35.608Z,10.07
2023-04-18T23:24:03.736Z,8.87
2023-04-18T23:26:32.492Z,9.77
2023-04-18T23:29:01.017Z,9.13
2023-04-18T23:31:29.601Z,8.90
2023-04-18T23:33:58.018Z,9.63
2023-04-18T23:36:27.343Z,9.77
2023-04-18T23:38:57.173Z,9.40
2023-04-18T23:41:25.896Z,9.60
2023-04-18T23:43:54.473Z,8.83
2023-04-18T23:46:22.896Z,8.80
2023-04-18T23:48:52.280Z,9.50
2023-04-18T23:51:20.963Z,8.60
2023-04-18T23:53:49.508Z,7.80
2023-04-18T23:56:19.002Z,8.07
2023-04-18T23:58:47.423Z,8.47
